Bryson, Texas
Current Conditions -  °F | °C
As of 1:10 PM on Monday 20 Oct 2014 (Local Time) from KRPH Reporting Station
Clear Clear  
Wind Chill: 81°   Ceiling: Unl
Heat Index: 81°   Visibility: 10mi
Dew Point: 61°   Wind: 3mph
Humidity: 51%   Direction: 200°SSW
Pressure: 30.05"   Gusts: NA
Location:  33.16°N, 98.39°W
Report Text: KRPH 201810Z AUTO 20003KT 10SM CLR 27/16 A3005 RMK AO2 T02700161
Loading
Personal Weather Stations






























Interactive Weather Map
Tropical Storm Tracking
New forecast layout! Learn more

10-Day Weather Forecast

Advertisements
Track Severe Weather on mobile